Kasif Kalkavan — V7IX7 — position and weather

sailwx.info

Track history (hours):
 
Tides and Currents Weather Stations Pressure Air Temp Water Temp Dewpoint Dewpoint Depression Visibility Wind Speed Wind Dir Waves Ship Positions

Kasif Kalkavan

Last reported at 2014-Dec-21 02:08 UTC. Time now 2014-Dec-21 15:11 UTC.
Position N 40°02' E 026°15'.

Type: Cargo ship. MMSI: 538090190.

Date/timePositionNaut miles runAvg speedWind from/ knotsBaromVisibWave heightAir tempDewpointWater temp
2014-Dec-21 02:08N 40°02' E 026°15'15414.6
2014-Dec-20 15:32N 37°48' E 024°35'1814.8
2014-Dec-20 14:20N 37°33' E 024°25'1615.0
2014-Dec-20 13:16N 37°20' E 024°13'  
2014-Dec-16 08:32N 37°17' E 023°53'1615.0
2014-Dec-16 07:29N 37°31' E 024°03'1714.7
2014-Dec-16 06:20N 37°44' E 024°17'1215.2
2014-Dec-16 05:33N 37°51' E 024°28'2115.1
2014-Dec-16 04:08N 38°09' E 024°44'914.8
2014-Dec-16 03:30N 38°17' E 024°49'9014.5
2014-Dec-15 21:20N 39°37' E 025°42'8113.7
2014-Dec-15 15:23N 40°32' E 027°01'  
2014-Dec-11 10:21N 44°07' E 033°55'2514.2
2014-Dec-11 08:33N 43°59' E 034°28'  
Track history (hours):
 
Tides and Currents Weather Stations Pressure Air Temp Water Temp Dewpoint Dewpoint Depression Visibility Wind Speed Wind Dir Waves Ship Positions

Kasif Kalkavan

Last reported at 2014-Dec-21 02:08 UTC. Time now 2014-Dec-21 15:11 UTC.
Position N 40°02' E 026°15'.

Type: Cargo ship. MMSI: 538090190.

Date/timePositionNaut miles runAvg speedWind from/ knotsBaromVisibWave heightAir tempDewpointWater temp
2014-Dec-21 02:08N 40°02' E 026°15'15414.6
2014-Dec-20 15:32N 37°48' E 024°35'1814.8
2014-Dec-20 14:20N 37°33' E 024°25'1615.0
2014-Dec-20 13:16N 37°20' E 024°13'  
2014-Dec-16 08:32N 37°17' E 023°53'1615.0
2014-Dec-16 07:29N 37°31' E 024°03'1714.7
2014-Dec-16 06:20N 37°44' E 024°17'1215.2
2014-Dec-16 05:33N 37°51' E 024°28'2115.1
2014-Dec-16 04:08N 38°09' E 024°44'914.8
2014-Dec-16 03:30N 38°17' E 024°49'9014.5
2014-Dec-15 21:20N 39°37' E 025°42'8113.7
2014-Dec-15 15:23N 40°32' E 027°01'  
2014-Dec-11 10:21N 44°07' E 033°55'2514.2
2014-Dec-11 08:33N 43°59' E 034°28'  

Dump ship's entire track history